sensor_id;sensor_type;location;lat;lon;timestamp;pressure;altitude;pressure_sealevel;temperature;humidity
13420;BME280;6781;58.440;15.470;2023-02-13T00:01:44;103853.88;;;1.88;100.00
13420;BME280;6781;58.440;15.470;2023-02-13T00:04:11;103858.16;;;1.89;100.00
13420;BME280;6781;58.440;15.470;2023-02-13T00:06:38;103853.03;;;1.89;100.00
13420;BME280;6781;58.440;15.470;2023-02-13T00:09:06;103852.19;;;1.90;100.00
13420;BME280;6781;58.440;15.470;2023-02-13T00:11:35;103859.06;;;1.94;100.00
13420;BME280;6781;58.440;15.470;2023-02-13T00:14:04;103860.78;;;1.95;100.00
13420;BME280;6781;58.440;15.470;2023-02-13T00:16:32;103866.69;;;1.91;100.00
13420;BME280;6781;58.440;15.470;2023-02-13T00:18:59;103871.00;;;1.95;100.00
13420;BME280;6781;58.440;15.470;2023-02-13T00:21:26;103880.44;;;2.00;100.00
13420;BME280;6781;58.440;15.470;2023-02-13T00:23:53;103883.88;;;2.02;100.00
13420;BME280;6781;58.440;15.470;2023-02-13T00:26:20;103881.31;;;2.02;100.00
13420;BME280;6781;58.440;15.470;2023-02-13T00:28:47;103888.97;;;1.99;100.00
13420;BME280;6781;58.440;15.470;2023-02-13T00:31:14;103895.00;;;2.05;100.00
13420;BME280;6781;58.440;15.470;2023-02-13T00:33:43;103889.06;;;2.08;100.00
13420;BME280;6781;58.440;15.470;2023-02-13T00:36:10;103883.91;;;2.05;100.00
13420;BME280;6781;58.440;15.470;2023-02-13T00:38:38;103895.81;;;2.03;100.00
13420;BME280;6781;58.440;15.470;2023-02-13T00:41:05;103889.91;;;2.07;100.00
13420;BME280;6781;58.440;15.470;2023-02-13T00:43:32;103889.03;;;2.05;100.00
13420;BME280;6781;58.440;15.470;2023-02-13T00:45:59;103893.28;;;2.04;100.00
13420;BME280;6781;58.440;15.470;2023-02-13T00:48:27;103892.47;;;2.07;100.00
13420;BME280;6781;58.440;15.470;2023-02-13T00:50:56;103890.75;;;2.09;100.00
13420;BME280;6781;58.440;15.470;2023-02-13T00:53:24;103890.81;;;2.12;100.00
13420;BME280;6781;58.440;15.470;2023-02-13T00:55:51;103896.06;;;2.25;100.00
13420;BME280;6781;58.440;15.470;2023-02-13T00:58:18;103896.84;;;2.20;100.00
13420;BME280;6781;58.440;15.470;2023-02-13T01:00:48;103895.22;;;2.26;100.00
13420;BME280;6781;58.440;15.470;2023-02-13T01:03:16;103898.59;;;2.22;100.00
13420;BME280;6781;58.440;15.470;2023-02-13T01:05:43;103903.72;;;2.22;100.00
13420;BME280;6781;58.440;15.470;2023-02-13T01:08:12;103899.44;;;2.23;100.00
13420;BME280;6781;58.440;15.470;2023-02-13T01:10:43;103890.91;;;2.24;100.00
13420;BME280;6781;58.440;15.470;2023-02-13T01:13:11;103893.53;;;2.28;100.00
13420;BME280;6781;58.440;15.470;2023-02-13T01:15:38;103894.41;;;2.32;100.00
13420;BME280;6781;58.440;15.470;2023-02-13T01:18:05;103888.38;;;2.27;100.00
13420;BME280;6781;58.440;15.470;2023-02-13T01:20:32;103890.97;;;2.28;100.00
13420;BME280;6781;58.440;15.470;2023-02-13T01:22:59;103894.34;;;2.26;100.00
13420;BME280;6781;58.440;15.470;2023-02-13T01:25:27;103889.22;;;2.26;100.00
13420;BME280;6781;58.440;15.470;2023-02-13T01:27:54;103892.66;;;2.28;100.00
13420;BME280;6781;58.440;15.470;2023-02-13T01:30:21;103884.13;;;2.26;100.00
13420;BME280;6781;58.440;15.470;2023-02-13T01:32:48;103884.94;;;2.23;100.00
13420;BME280;6781;58.440;15.470;2023-02-13T01:35:15;103884.06;;;2.20;100.00
13420;BME280;6781;58.440;15.470;2023-02-13T01:37:42;103878.09;;;2.22;100.00
13420;BME280;6781;58.440;15.470;2023-02-13T01:40:10;103874.69;;;2.23;100.00
13420;BME280;6781;58.440;15.470;2023-02-13T01:42:39;103877.28;;;2.25;100.00
13420;BME280;6781;58.440;15.470;2023-02-13T01:45:12;103876.47;;;2.31;100.00
13420;BME280;6781;58.440;15.470;2023-02-13T01:47:44;103885.00;;;2.29;100.00
13420;BME280;6781;58.440;15.470;2023-02-13T01:50:14;103883.28;;;2.30;100.00
13420;BME280;6781;58.440;15.470;2023-02-13T01:52:43;103871.34;;;2.31;100.00
13420;BME280;6781;58.440;15.470;2023-02-13T01:55:12;103873.91;;;2.29;100.00
13420;BME280;6781;58.440;15.470;2023-02-13T01:57:41;103873.06;;;2.32;100.00
13420;BME280;6781;58.440;15.470;2023-02-13T02:00:10;103872.22;;;2.34;100.00
13420;BME280;6781;58.440;15.470;2023-02-13T02:02:40;103876.50;;;2.35;100.00
13420;BME280;6781;58.440;15.470;2023-02-13T02:05:08;103873.09;;;2.35;100.00
13420;BME280;6781;58.440;15.470;2023-02-13T02:07:35;103867.13;;;2.37;100.00
13420;BME280;6781;58.440;15.470;2023-02-13T02:10:05;103862.88;;;2.39;100.00
13420;BME280;6781;58.440;15.470;2023-02-13T02:12:35;103858.59;;;2.38;100.00
13420;BME280;6781;58.440;15.470;2023-02-13T02:15:05;103867.16;;;2.39;100.00
13420;BME280;6781;58.440;15.470;2023-02-13T02:17:32;103860.31;;;2.39;100.00
13420;BME280;6781;58.440;15.470;2023-02-13T02:20:02;103853.47;;;2.38;100.00
13420;BME280;6781;58.440;15.470;2023-02-13T02:22:46;103851.78;;;2.40;100.00
13420;BME280;6781;58.440;15.470;2023-02-13T02:25:28;103859.47;;;2.40;100.00
13420;BME280;6781;58.440;15.470;2023-02-13T02:33:31;103847.53;;;2.42;100.00
13420;BME280;6781;58.440;15.470;2023-02-13T02:36:04;103843.28;;;2.44;100.00
13420;BME280;6781;58.440;15.470;2023-02-13T02:38:40;103858.72;;;2.50;100.00
13420;BME280;6781;58.440;15.470;2023-02-13T02:41:12;103855.25;;;2.45;100.00
13420;BME280;6781;58.440;15.470;2023-02-13T02:44:03;103852.75;;;2.51;100.00
13420;BME280;6781;58.440;15.470;2023-02-13T02:46:34;103851.91;;;2.52;100.00
13420;BME280;6781;58.440;15.470;2023-02-13T02:49:04;103860.50;;;2.60;100.00
13420;BME280;6781;58.440;15.470;2023-02-13T02:51:50;103857.91;;;2.57;100.00
13420;BME280;6781;58.440;15.470;2023-02-13T02:54:23;103853.59;;;2.53;100.00
13420;BME280;6781;58.440;15.470;2023-02-13T02:57:10;103846.81;;;2.58;100.00
13420;BME280;6781;58.440;15.470;2023-02-13T02:59:39;103845.97;;;2.59;100.00
13420;BME280;6781;58.440;15.470;2023-02-13T03:02:24;103845.13;;;2.60;100.00
13420;BME280;6781;58.440;15.470;2023-02-13T03:07:47;103843.38;;;2.56;100.00
13420;BME280;6781;58.440;15.470;2023-02-13T03:10:15;103844.22;;;2.54;100.00
13420;BME280;6781;58.440;15.470;2023-02-13T03:13:02;103836.53;;;2.55;100.00
13420;BME280;6781;58.440;15.470;2023-02-13T03:15:46;103849.38;;;2.60;100.00
13420;BME280;6781;58.440;15.470;2023-02-13T03:18:28;103855.38;;;2.60;100.00
13420;BME280;6781;58.440;15.470;2023-02-13T03:21:15;103845.13;;;2.60;100.00
13420;BME280;6781;58.440;15.470;2023-02-13T03:24:03;103854.50;;;2.57;100.00
13420;BME280;6781;58.440;15.470;2023-02-13T03:26:36;103845.09;;;2.57;100.00
13420;BME280;6781;58.440;15.470;2023-02-13T03:29:17;103828.84;;;2.54;100.00
13420;BME280;6781;58.440;15.470;2023-02-13T03:32:05;103828.84;;;2.54;100.00
13420;BME280;6781;58.440;15.470;2023-02-13T03:34:35;103824.59;;;2.57;100.00
13420;BME280;6781;58.440;15.470;2023-02-13T03:37:17;103817.75;;;2.53;100.00
13420;BME280;6781;58.440;15.470;2023-02-13T03:40:06;103806.63;;;2.51;100.00
13420;BME280;6781;58.440;15.470;2023-02-13T03:42:36;103813.44;;;2.51;100.00
13420;BME280;6781;58.440;15.470;2023-02-13T03:45:05;103814.31;;;2.51;100.00
13420;BME280;6781;58.440;15.470;2023-02-13T03:47:53;103822.84;;;2.50;100.00
13420;BME280;6781;58.440;15.470;2023-02-13T03:50:21;103816.91;;;2.56;100.00
13420;BME280;6781;58.440;15.470;2023-02-13T03:52:49;103819.47;;;2.54;100.00
13420;BME280;6781;58.440;15.470;2023-02-13T03:55:19;103814.34;;;2.54;100.00
13420;BME280;6781;58.440;15.470;2023-02-13T03:58:06;103822.81;;;2.47;100.00
13420;BME280;6781;58.440;15.470;2023-02-13T04:00:51;103810.88;;;2.46;100.00
13420;BME280;6781;58.440;15.470;2023-02-13T04:03:22;103806.66;;;2.54;100.00
13420;BME280;6781;58.440;15.470;2023-02-13T04:05:52;103805.81;;;2.58;100.00
13420;BME280;6781;58.440;15.470;2023-02-13T04:08:19;103800.69;;;2.57;100.00
13420;BME280;6781;58.440;15.470;2023-02-13T04:10:50;103807.50;;;2.56;100.00
13420;BME280;6781;58.440;15.470;2023-02-13T04:13:19;103797.28;;;2.56;100.00
13420;BME280;6781;58.440;15.470;2023-02-13T04:15:52;103816.09;;;2.61;100.00
13420;BME280;6781;58.440;15.470;2023-02-13T04:18:21;103826.34;;;2.61;100.00
13420;BME280;6781;58.440;15.470;2023-02-13T04:20:51;103820.31;;;2.55;100.00
13420;BME280;6781;58.440;15.470;2023-02-13T04:23:19;103816.06;;;2.57;100.00
13420;BME280;6781;58.440;15.470;2023-02-13T04:25:47;103816.91;;;2.57;100.00
13420;BME280;6781;58.440;15.470;2023-02-13T04:28:15;103817.75;;;2.53;100.00
13420;BME280;6781;58.440;15.470;2023-02-13T04:30:42;103822.03;;;2.56;100.00
13420;BME280;6781;58.440;15.470;2023-02-13T04:33:09;103812.63;;;2.53;100.00
13420;BME280;6781;58.440;15.470;2023-02-13T04:35:36;103821.13;;;2.49;100.00
13420;BME280;6781;58.440;15.470;2023-02-13T04:38:03;103826.25;;;2.49;100.00
13420;BME280;6781;58.440;15.470;2023-02-13T04:40:30;103814.28;;;2.45;100.00
13420;BME280;6781;58.440;15.470;2023-02-13T04:42:57;103800.56;;;2.37;100.00
13420;BME280;6781;58.440;15.470;2023-02-13T04:45:25;103807.38;;;2.38;100.00
13420;BME280;6781;58.440;15.470;2023-02-13T04:47:53;103791.13;;;2.35;100.00
13420;BME280;6781;58.440;15.470;2023-02-13T04:50:20;103786.91;;;2.38;100.00
13420;BME280;6781;58.440;15.470;2023-02-13T04:52:49;103792.03;;;2.38;100.00
13420;BME280;6781;58.440;15.470;2023-02-13T04:55:18;103802.25;;;2.38;100.00
13420;BME280;6781;58.440;15.470;2023-02-13T04:57:44;103786.91;;;2.38;100.00
13420;BME280;6781;58.440;15.470;2023-02-13T05:00:12;103786.88;;;2.34;100.00
13420;BME280;6781;58.440;15.470;2023-02-13T05:02:41;103783.41;;;2.30;100.00
13420;BME280;6781;58.440;15.470;2023-02-13T05:05:07;103794.53;;;2.34;100.00
13420;BME280;6781;58.440;15.470;2023-02-13T05:07:34;103800.50;;;2.31;100.00
13420;BME280;6781;58.440;15.470;2023-02-13T05:10:01;103791.94;;;2.29;100.00
13420;BME280;6781;58.440;15.470;2023-02-13T05:12:28;103791.94;;;2.26;100.00
13420;BME280;6781;58.440;15.470;2023-02-13T05:14:55;103792.78;;;2.28;100.00
13420;BME280;6781;58.440;15.470;2023-02-13T05:17:22;103793.63;;;2.24;100.00
13420;BME280;6781;58.440;15.470;2023-02-13T05:19:50;103791.88;;;2.20;100.00
13420;BME280;6781;58.440;15.470;2023-02-13T05:22:17;103789.25;;;2.11;100.00
13420;BME280;6781;58.440;15.470;2023-02-13T05:25:01;103786.66;;;2.08;100.00
13420;BME280;6781;58.440;15.470;2023-02-13T05:27:28;103778.97;;;2.08;100.00
13420;BME280;6781;58.440;15.470;2023-02-13T05:29:55;103776.41;;;2.06;100.00
13420;BME280;6781;58.440;15.470;2023-02-13T05:32:22;103770.41;;;2.04;100.00
13420;BME280;6781;58.440;15.470;2023-02-13T05:37:53;103782.31;;;1.99;100.00
13420;BME280;6781;58.440;15.470;2023-02-13T05:40:19;103784.88;;;1.98;100.00
13420;BME280;6781;58.440;15.470;2023-02-13T05:46:03;103767.75;;;1.90;100.00
13420;BME280;6781;58.440;15.470;2023-02-13T05:48:47;103768.56;;;1.88;100.00
13420;BME280;6781;58.440;15.470;2023-02-13T05:51:22;103774.47;;;1.81;100.00
13420;BME280;6781;58.440;15.470;2023-02-13T05:54:00;103781.28;;;1.80;100.00
13420;BME280;6781;58.440;15.470;2023-02-13T05:59:26;103804.31;;;1.79;100.00
13420;BME280;6781;58.440;15.470;2023-02-13T06:01:58;103801.69;;;1.74;100.00
13420;BME280;6781;58.440;15.470;2023-02-13T06:04:44;103810.25;;;1.73;100.00
13420;BME280;6781;58.440;15.470;2023-02-13T06:07:12;103810.22;;;1.72;100.00
13420;BME280;6781;58.440;15.470;2023-02-13T06:09:44;103811.94;;;1.73;100.00
13420;BME280;6781;58.440;15.470;2023-02-13T06:12:11;103820.47;;;1.76;100.00
13420;BME280;6781;58.440;15.470;2023-02-13T06:14:38;103823.91;;;1.78;100.00
13420;BME280;6781;58.440;15.470;2023-02-13T06:17:05;103837.59;;;1.80;100.00
13420;BME280;6781;58.440;15.470;2023-02-13T06:19:32;103826.53;;;1.84;100.00
13420;BME280;6781;58.440;15.470;2023-02-13T06:21:59;103823.97;;;1.84;100.00
13420;BME280;6781;58.440;15.470;2023-02-13T06:24:26;103818.88;;;1.87;100.00
13420;BME280;6781;58.440;15.470;2023-02-13T06:27:22;103824.00;;;1.87;100.00
13420;BME280;6781;58.440;15.470;2023-02-13T06:30:09;103830.00;;;1.89;100.00
13420;BME280;6781;58.440;15.470;2023-02-13T06:46:10;103849.63;;;1.90;100.00
13420;BME280;6781;58.440;15.470;2023-02-13T06:51:33;103849.66;;;1.92;100.00
13420;BME280;6781;58.440;15.470;2023-02-13T06:54:17;103853.91;;;1.91;100.00
13420;BME280;6781;58.440;15.470;2023-02-13T07:29:07;103958.28;;;2.17;100.00
13420;BME280;6781;58.440;15.470;2023-02-13T07:34:48;103967.66;;;2.18;100.00
13420;BME280;6781;58.440;15.470;2023-02-13T07:37:32;103957.44;;;2.18;100.00
13420;BME280;6781;58.440;15.470;2023-02-13T07:40:16;103963.41;;;2.20;100.00
13420;BME280;6781;58.440;15.470;2023-02-13T07:43:10;103950.63;;;2.20;100.00
13420;BME280;6781;58.440;15.470;2023-02-13T08:22:11;103887.63;;;2.37;100.00
13420;BME280;6781;58.440;15.470;2023-02-13T08:27:55;103888.56;;;2.48;100.00
13420;BME280;6781;58.440;15.470;2023-02-13T08:30:25;103868.06;;;2.45;100.00
13420;BME280;6781;58.440;15.470;2023-02-13T08:32:56;103888.66;;;2.59;100.00
13420;BME280;6781;58.440;15.470;2023-02-13T08:35:27;103909.16;;;2.59;100.00
13420;BME280;6781;58.440;15.470;2023-02-13T08:38:10;103904.91;;;2.61;100.00
13420;BME280;6781;58.440;15.470;2023-02-13T08:40:46;103906.66;;;2.67;100.00
13420;BME280;6781;58.440;15.470;2023-02-13T08:43:26;103904.94;;;2.66;100.00
13420;BME280;6781;58.440;15.470;2023-02-13T08:48:54;103896.44;;;2.70;100.00
13420;BME280;6781;58.440;15.470;2023-02-13T08:51:39;103909.31;;;2.77;100.00
13420;BME280;6781;58.440;15.470;2023-02-13T08:57:28;103891.50;;;2.96;100.00
13420;BME280;6781;58.440;15.470;2023-02-13T08:59:59;103900.09;;;3.02;100.00
13420;BME280;6781;58.440;15.470;2023-02-13T09:02:29;103915.50;;;3.05;100.00
13420;BME280;6781;58.440;15.470;2023-02-13T09:04:58;103920.72;;;3.20;100.00
13420;BME280;6781;58.440;15.470;2023-02-13T09:07:39;103914.69;;;3.15;100.00
13420;BME280;6781;58.440;15.470;2023-02-13T09:10:21;103905.31;;;3.20;100.00
13420;BME280;6781;58.440;15.470;2023-02-13T09:13:08;103909.69;;;3.34;100.00
13420;BME280;6781;58.440;15.470;2023-02-13T09:15:37;103907.09;;;3.34;100.00
13420;BME280;6781;58.440;15.470;2023-02-13T09:18:06;103895.13;;;3.33;100.00
13420;BME280;6781;58.440;15.470;2023-02-13T09:20:37;103898.59;;;3.48;100.00
13420;BME280;6781;58.440;15.470;2023-02-13T09:23:21;103888.38;;;3.56;100.00
13420;BME280;6781;58.440;15.470;2023-02-13T09:25:50;103888.38;;;3.59;100.00
13420;BME280;6781;58.440;15.470;2023-02-13T09:31:05;103878.13;;;3.68;100.00
13420;BME280;6781;58.440;15.470;2023-02-13T09:33:35;103867.03;;;3.69;100.00
13420;BME280;6781;58.440;15.470;2023-02-13T09:36:15;103855.91;;;3.70;100.00
13420;BME280;6781;58.440;15.470;2023-02-13T09:39:12;103840.53;;;3.78;100.00
13420;BME280;6781;58.440;15.470;2023-02-13T09:42:13;103826.84;;;3.80;100.00
13420;BME280;6781;58.440;15.470;2023-02-13T09:54:05;103785.78;;;4.02;100.00
13420;BME280;6781;58.440;15.470;2023-02-13T09:56:39;103777.22;;;3.97;100.00
13420;BME280;6781;58.440;15.470;2023-02-13T09:59:29;103768.66;;;4.10;100.00
13420;BME280;6781;58.440;15.470;2023-02-13T10:01:59;103760.94;;;4.16;100.00
13420;BME280;6781;58.440;15.470;2023-02-13T10:04:44;103758.38;;;4.22;100.00
13420;BME280;6781;58.440;15.470;2023-02-13T10:07:29;103736.97;;;4.23;100.00
13420;BME280;6781;58.440;15.470;2023-02-13T10:12:53;103705.28;;;4.24;100.00
13420;BME280;6781;58.440;15.470;2023-02-13T10:15:53;103700.16;;;4.29;100.00
13420;BME280;6781;58.440;15.470;2023-02-13T10:18:27;103692.41;;;4.38;100.00
13420;BME280;6781;58.440;15.470;2023-02-13T10:20:59;103691.53;;;4.46;100.00
13420;BME280;6781;58.440;15.470;2023-02-13T10:23:42;103685.53;;;4.50;100.00
13420;BME280;6781;58.440;15.470;2023-02-13T10:26:12;103675.22;;;4.56;100.00
13420;BME280;6781;58.440;15.470;2023-02-13T10:28:57;103658.94;;;4.61;100.00
13420;BME280;6781;58.440;15.470;2023-02-13T10:31:44;103623.81;;;4.56;100.00
13420;BME280;6781;58.440;15.470;2023-02-13T10:34:16;103608.31;;;4.72;100.00
13420;BME280;6781;58.440;15.470;2023-02-13T10:36:43;103593.72;;;4.77;100.00
13420;BME280;6781;58.440;15.470;2023-02-13T10:39:22;103564.63;;;4.72;100.00
13420;BME280;6781;58.440;15.470;2023-02-13T10:41:53;103548.28;;;4.77;100.00
13420;BME280;6781;58.440;15.470;2023-02-13T10:44:32;103536.25;;;4.84;100.00
13420;BME280;6781;58.440;15.470;2023-02-13T10:49:59;103505.34;;;4.92;100.00
13420;BME280;6781;58.440;15.470;2023-02-13T10:52:47;103468.47;;;4.94;100.00
13420;BME280;6781;58.440;15.470;2023-02-13T10:58:36;103427.25;;;5.00;100.00
13420;BME280;6781;58.440;15.470;2023-02-13T11:01:29;103411.75;;;5.06;100.00
13420;BME280;6781;58.440;15.470;2023-02-13T11:04:16;103391.22;;;5.03;100.00
13420;BME280;6781;58.440;15.470;2023-02-13T11:06:56;103373.16;;;5.09;100.00
13420;BME280;6781;58.440;15.470;2023-02-13T11:09:53;103357.72;;;5.09;100.00
13420;BME280;6781;58.440;15.470;2023-02-13T11:12:41;103331.19;;;5.04;100.00
13420;BME280;6781;58.440;15.470;2023-02-13T11:15:19;103323.41;;;5.10;100.00
13420;BME280;6781;58.440;15.470;2023-02-13T11:18:12;103317.31;;;5.17;100.00
13420;BME280;6781;58.440;15.470;2023-02-13T11:27:29;103232.28;;;5.25;100.00
13420;BME280;6781;58.440;15.470;2023-02-13T11:33:31;103207.25;;;5.38;100.00
13420;BME280;6781;58.440;15.470;2023-02-13T11:36:34;103189.94;;;5.47;100.00
13420;BME280;6781;58.440;15.470;2023-02-13T11:39:18;103166.88;;;5.41;100.00
13420;BME280;6781;58.440;15.470;2023-02-13T11:42:23;103147.09;;;5.43;100.00
13420;BME280;6781;58.440;15.470;2023-02-13T11:45:04;103124.78;;;5.44;100.00
13420;BME280;6781;58.440;15.470;2023-02-13T11:47:45;103102.31;;;5.53;100.00
13420;BME280;6781;58.440;15.470;2023-02-13T11:50:21;103095.53;;;5.49;100.00
13420;BME280;6781;58.440;15.470;2023-02-13T11:52:55;103086.63;;;5.69;100.00
13420;BME280;6781;58.440;15.470;2023-02-13T11:55:24;103056.69;;;5.63;100.00
13420;BME280;6781;58.440;15.470;2023-02-13T11:57:55;103042.84;;;5.69;100.00
13420;BME280;6781;58.440;15.470;2023-02-13T12:00:41;103015.47;;;5.65;100.00
13420;BME280;6781;58.440;15.470;2023-02-13T12:03:26;102995.63;;;5.70;100.00
13420;BME280;6781;58.440;15.470;2023-02-13T12:06:02;102977.75;;;5.62;100.00
13420;BME280;6781;58.440;15.470;2023-02-13T12:08:30;102974.34;;;5.62;100.00
13420;BME280;6781;58.440;15.470;2023-02-13T12:10:57;102969.84;;;5.71;100.00
13420;BME280;6781;58.440;15.470;2023-02-13T12:13:26;102954.34;;;5.74;100.00
13420;BME280;6781;58.440;15.470;2023-02-13T12:15:56;102945.94;;;5.66;100.00
13420;BME280;6781;58.440;15.470;2023-02-13T12:18:25;102944.06;;;5.73;100.00
13420;BME280;6781;58.440;15.470;2023-02-13T12:21:15;102939.72;;;5.76;100.00
13420;BME280;6781;58.440;15.470;2023-02-13T12:24:03;102918.97;;;5.82;100.00
13420;BME280;6781;58.440;15.470;2023-02-13T12:26:37;102885.66;;;5.76;100.00
13420;BME280;6781;58.440;15.470;2023-02-13T12:29:16;102883.88;;;5.78;100.00
13420;BME280;6781;58.440;15.470;2023-02-13T12:32:01;102870.94;;;5.81;100.00
13420;BME280;6781;58.440;15.470;2023-02-13T12:34:37;102871.78;;;5.82;100.00
13420;BME280;6781;58.440;15.470;2023-02-13T12:37:14;102867.50;;;5.82;100.00
13420;BME280;6781;58.440;15.470;2023-02-13T12:39:44;102862.13;;;5.93;100.00
13420;BME280;6781;58.440;15.470;2023-02-13T12:42:21;102847.63;;;5.87;100.00
13420;BME280;6781;58.440;15.470;2023-02-13T12:44:56;102838.28;;;5.83;100.00
13420;BME280;6781;58.440;15.470;2023-02-13T12:47:28;102824.28;;;5.97;100.00
13420;BME280;6781;58.440;15.470;2023-02-13T12:50:01;102824.25;;;5.98;100.00
13420;BME280;6781;58.440;15.470;2023-02-13T12:52:51;102804.41;;;6.02;100.00
13420;BME280;6781;58.440;15.470;2023-02-13T12:58:11;102773.28;;;6.11;100.00
13420;BME280;6781;58.440;15.470;2023-02-13T13:00:46;102772.50;;;6.07;100.00
13420;BME280;6781;58.440;15.470;2023-02-13T13:03:25;102756.19;;;6.07;100.00
13420;BME280;6781;58.440;15.470;2023-02-13T13:06:00;102770.88;;;6.03;100.00
13420;BME280;6781;58.440;15.470;2023-02-13T13:08:39;102766.19;;;6.19;100.00
13420;BME280;6781;58.440;15.470;2023-02-13T13:11:15;102747.44;;;6.14;100.00
13420;BME280;6781;58.440;15.470;2023-02-13T13:13:47;102742.22;;;6.17;100.00
13420;BME280;6781;58.440;15.470;2023-02-13T13:16:16;102736.41;;;6.09;100.00
13420;BME280;6781;58.440;15.470;2023-02-13T13:18:50;102736.25;;;6.15;100.00
13420;BME280;6781;58.440;15.470;2023-02-13T13:21:35;102733.59;;;6.18;100.00
13420;BME280;6781;58.440;15.470;2023-02-13T13:24:09;102729.25;;;6.20;100.00
13420;BME280;6781;58.440;15.470;2023-02-13T13:26:44;102718.06;;;6.21;100.00
13420;BME280;6781;58.440;15.470;2023-02-13T13:29:20;102712.75;;;6.27;100.00
13420;BME280;6781;58.440;15.470;2023-02-13T13:31:57;102695.59;;;6.26;100.00
13420;BME280;6781;58.440;15.470;2023-02-13T13:34:27;102692.13;;;6.27;100.00
13420;BME280;6781;58.440;15.470;2023-02-13T13:36:58;102682.75;;;6.25;100.00
13420;BME280;6781;58.440;15.470;2023-02-13T13:39:32;102687.81;;;6.28;100.00
13420;BME280;6781;58.440;15.470;2023-02-13T13:42:05;102678.28;;;6.31;100.00
13420;BME280;6781;58.440;15.470;2023-02-13T13:44:41;102671.44;;;6.30;100.00
13420;BME280;6781;58.440;15.470;2023-02-13T13:47:15;102462.06;;;5.01;100.00
13420;BME280;6781;58.440;15.470;2023-02-13T13:49:50;102663.75;;;6.29;100.00
13420;BME280;6781;58.440;15.470;2023-02-13T13:52:22;102674.09;;;6.27;100.00
13420;BME280;6781;58.440;15.470;2023-02-13T14:00:48;102658.78;;;6.21;100.00
13420;BME280;6781;58.440;15.470;2023-02-13T14:03:38;102661.53;;;6.15;100.00
13420;BME280;6781;58.440;15.470;2023-02-13T14:06:07;102658.16;;;6.13;100.00
13420;BME280;6781;58.440;15.470;2023-02-13T14:11:36;102675.53;;;6.05;100.00
13420;BME280;6781;58.440;15.470;2023-02-13T14:20:10;102691.38;;;5.90;100.00
13420;BME280;6781;58.440;15.470;2023-02-13T14:22:55;102694.97;;;5.82;100.00
13420;BME280;6781;58.440;15.470;2023-02-13T14:25:31;102694.25;;;5.77;100.00
13420;BME280;6781;58.440;15.470;2023-02-13T14:27:58;102690.75;;;5.80;100.00
13420;BME280;6781;58.440;15.470;2023-02-13T14:30:27;102692.44;;;5.81;100.00
13420;BME280;6781;58.440;15.470;2023-02-13T14:32:57;102691.66;;;5.77;100.00
13420;BME280;6781;58.440;15.470;2023-02-13T14:35:29;102690.81;;;5.77;100.00
13420;BME280;6781;58.440;15.470;2023-02-13T14:38:19;102686.56;;;5.76;100.00
13420;BME280;6781;58.440;15.470;2023-02-13T14:40:52;102685.06;;;5.67;100.00
13420;BME280;6781;58.440;15.470;2023-02-13T14:58:57;102679.72;;;5.39;100.00
13420;BME280;6781;58.440;15.470;2023-02-13T15:01:29;102683.31;;;5.32;100.00
13420;BME280;6781;58.440;15.470;2023-02-13T15:04:04;102689.38;;;5.30;100.00
13420;BME280;6781;58.440;15.470;2023-02-13T15:13:12;102701.31;;;4.95;100.00
13420;BME280;6781;58.440;15.470;2023-02-13T15:15:58;102700.69;;;4.84;100.00
13420;BME280;6781;58.440;15.470;2023-02-13T15:18:39;102714.53;;;4.77;100.00
13420;BME280;6781;58.440;15.470;2023-02-13T15:21:08;102719.94;;;4.65;100.00
13420;BME280;6781;58.440;15.470;2023-02-13T15:24:00;102733.84;;;4.54;100.00
13420;BME280;6781;58.440;15.470;2023-02-13T15:26:30;102730.56;;;4.46;100.00
13420;BME280;6781;58.440;15.470;2023-02-13T15:29:43;102748.72;;;4.37;100.00
13420;BME280;6781;58.440;15.470;2023-02-13T15:38:56;102777.59;;;4.01;100.00
13420;BME280;6781;58.440;15.470;2023-02-13T15:41:36;102787.09;;;3.94;100.00
13420;BME280;6781;58.440;15.470;2023-02-13T15:44:23;102796.63;;;3.87;100.00
13420;BME280;6781;58.440;15.470;2023-02-13T15:47:40;102799.31;;;3.78;100.00
13420;BME280;6781;58.440;15.470;2023-02-13T15:50:41;102807.97;;;3.71;100.00
13420;BME280;6781;58.440;15.470;2023-02-13T15:59:17;102838.28;;;3.45;100.00
13420;BME280;6781;58.440;15.470;2023-02-13T16:01:58;102836.69;;;3.38;100.00
13420;BME280;6781;58.440;15.470;2023-02-13T16:04:26;102852.13;;;3.32;100.00
13420;BME280;6781;58.440;15.470;2023-02-13T16:06:54;102840.25;;;3.24;100.00
13420;BME280;6781;58.440;15.470;2023-02-13T16:21:26;102897.81;;;2.98;100.00
13420;BME280;6781;58.440;15.470;2023-02-13T16:24:02;102898.75;;;2.87;100.00
13420;BME280;6781;58.440;15.470;2023-02-13T16:26:33;102912.38;;;2.91;100.00
13420;BME280;6781;58.440;15.470;2023-02-13T16:29:07;102924.41;;;2.86;100.00
13420;BME280;6781;58.440;15.470;2023-02-13T16:35:15;102941.53;;;2.78;100.00
13420;BME280;6781;58.440;15.470;2023-02-13T17:01:12;103006.69;;;2.40;100.00
13420;BME280;6781;58.440;15.470;2023-02-13T17:03:43;103011.84;;;2.37;100.00
13420;BME280;6781;58.440;15.470;2023-02-13T17:06:15;103032.34;;;2.34;100.00
13420;BME280;6781;58.440;15.470;2023-02-13T17:11:58;103059.66;;;2.32;100.00
13420;BME280;6781;58.440;15.470;2023-02-13T17:14:38;103077.56;;;2.32;100.00
13420;BME280;6781;58.440;15.470;2023-02-13T17:17:13;103086.97;;;2.30;100.00
13420;BME280;6781;58.440;15.470;2023-02-13T17:19:41;103084.44;;;2.19;100.00
13420;BME280;6781;58.440;15.470;2023-02-13T17:22:11;103081.06;;;2.13;100.00
13420;BME280;6781;58.440;15.470;2023-02-13T17:24:48;103098.97;;;2.10;100.00
13420;BME280;6781;58.440;15.470;2023-02-13T17:27:14;103103.25;;;2.09;100.00
13420;BME280;6781;58.440;15.470;2023-02-13T17:29:41;103109.25;;;2.04;100.00